• Join FlightAware (Why Join?)
  • Login
  • US Flag 
12:15PM EDT


 

Airport Tracker/Info


-or-


 

Live Flight TrackerFlight Track Log ✈ N88JA ✈ 29-Apr-2013 ✈ KMGY - KMGY

Flight Track Log - Related Links

Times and Time Zones

All times are in EDT time to prevent confusion due to time zone crossing. See the N88JA flight status page for this flight to view local times or setup timezone preferences in your user account.

Time Position Orientation Groundspeed Altitude Reporting Facility
EDT Latitude Longitude Course Direction KTS MPH feet Rate Location/Type
04:26PM 39.5792 -84.2289 130° Southeast 82 94 1,300  Level Indianapolis Center
04:27PM 39.5664 -84.2089 130° Southeast 92 106 2,300 660 Climbing Indianapolis Center
04:28PM 39.5794 -84.1744 64° Northeast 107 123 2,900 300 Climbing Indianapolis Center
04:29PM 39.5944 -84.1375 62° Northeast 109 125 3,000 60 Climbing Indianapolis Center
04:30PM 39.6161 -84.0911 59° Northeast 120 138 3,100  Climbing Indianapolis Center
04:31PM 39.6408 -84.0642 40° Northeast 117 135 3,100  Level Indianapolis Center
04:32PM 39.6694 -84.0375 36° Northeast 123 142 3,100 -60 Level Indianapolis Center
04:33PM 39.6989 -84.0131 33° Northeast 123 142 3,000 -60 Descending Indianapolis Center
04:34PM 39.7222 -83.9794 48° Northeast 127 146 3,000  Level Indianapolis Center
04:35PM 39.7478 -83.9483 43° Northeast 125 144 3,000  Level Indianapolis Center
04:36PM 39.7747 -83.9236 35° Northeast 123 142 3,000  Level Indianapolis Center
04:37PM 39.7994 -83.8892 47° Northeast 123 142 3,100  Climbing Indianapolis Center
04:38PM 39.8256 -83.8622 38° Northeast 122 140 3,100 60 Level Indianapolis Center
04:39PM 39.8467 -83.8322 47° Northeast 121 139 3,300 240 Climbing Indianapolis Center
04:39PM 39.8536 -83.8256 36° Northeast 121 139 3,400 480 Climbing Indianapolis Center
04:40PM 39.8617 -83.7989 69° East 111 128 3,800 480 Climbing Indianapolis Center
04:40PM 39.8569 -83.7919 132° Southeast 114 131 3,900 120 Climbing Indianapolis Center
04:41PM 39.8436 -83.8156 234° Southwest 107 123 4,000  Climbing Indianapolis Center
04:42PM 39.8386 -83.8558 261° West 117 135 4,000  Level Indianapolis Center
04:43PM 39.8181 -83.8478 163° South 119 137 4,100 60 Climbing Indianapolis Center
04:43PM 39.8211 -83.8419 56° Northeast 120 138 4,100 -120 Level Indianapolis Center
04:44PM 39.8400 -83.8097 53° Northeast 125 144 4,000 -120 Descending Indianapolis Center
04:44PM 39.8419 -83.8053 60° Northeast 123 142 4,000 60 Level Indianapolis Center
04:45PM 39.8600 -83.8206 327° Northwest 137 158 4,100  Climbing Indianapolis Center
04:46PM 39.8392 -83.8478 225° Southwest 110 127 4,000  Descending Indianapolis Center
04:47PM 39.8319 -83.8553 219° Southwest 114 131 4,100  Climbing Indianapolis Center
04:47PM 39.8236 -83.8322 115° Southeast 134 154 4,000 -180 Descending Indianapolis Center
04:48PM 39.8519 -83.8167 23° Northeast 124 143 3,800 -360 Descending Indianapolis Center
04:49PM 39.8617 -83.8108 25° Northeast 125 144 3,600 -660 Descending Indianapolis Center
04:49PM 39.8750 -83.7869 54° Northeast 112 129 3,100 -600 Descending Indianapolis Center
04:50PM 39.8781 -83.7786 64° Northeast 113 130 3,000 -120 Descending Indianapolis Center
04:50PM 39.8942 -83.7569 46° Northeast 111 128 3,000  Level Indianapolis Center
04:51PM 39.9022 -83.7458 47° Northeast 111 128 3,000  Level Indianapolis Center
04:51PM 39.9106 -83.7344 46° Northeast 102 117 3,000  Level Indianapolis Center
04:52PM 39.9172 -83.7203 58° Northeast 106 122 3,000  Level Indianapolis Center
04:52PM 39.9256 -83.7008 61° Northeast 108 124 3,000  Level Indianapolis Center
04:53PM 39.9342 -83.6875 50° Northeast 107 123 3,000  Level Indianapolis Center
04:53PM 39.9464 -83.6736 41° Northeast 102 117 3,000  Level Indianapolis Center
04:54PM 39.9542 -83.6622 48° Northeast 104 120 3,000  Level Indianapolis Center
04:54PM 39.9531 -83.6392 94° East 104 120 3,000 60 Level Indianapolis Center
04:55PM 39.9569 -83.6175 77° East 104 120 3,100 60 Climbing Indianapolis Center
04:55PM 39.9694 -83.6167 North 95 109 3,100  Level Indianapolis Center
04:56PM 39.9733 -83.6336 287° West 103 119 3,100 -120 Level Indianapolis Center
04:56PM 39.9611 -83.6456 217° Southwest 95 109 3,000 -300 Descending Indianapolis Center
04:57PM 39.9517 -83.6553 218° Southwest 99 114 2,800 -240 Descending Indianapolis Center
04:57PM 39.9425 -83.6703 231° Southwest 95 109 2,800  Level Indianapolis Center
04:58PM 39.9339 -83.6800 221° Southwest 95 109 2,800  Level Indianapolis Center
04:58PM 39.9261 -83.6928 232° Southwest 92 106 2,800  Level Indianapolis Center
04:59PM 39.9208 -83.7083 246° West 92 106 2,800  Level Indianapolis Center
04:59PM 39.9175 -83.7244 255° West 92 106 2,800  Level Indianapolis Center
05:00PM 39.9092 -83.7375 230° Southwest 91 105 2,800 -300 Level Indianapolis Center
05:00PM 39.8967 -83.7517 221° Southwest 92 106 2,500 -540 Descending Indianapolis Center
05:01PM 39.8897 -83.7600 223° Southwest 92 106 2,300 -540 Descending Indianapolis Center
05:02PM 39.8750 -83.7853 233° Southwest 82 94 1,700 -540 Descending Indianapolis Center
05:02PM 39.8703 -83.7947 237° Southwest 76 87 1,600 -240 Descending Indianapolis Center
05:03PM 39.8606 -83.8056 221° Southwest 77 89 1,500  Descending Indianapolis Center
05:03PM 39.8564 -83.8144 239° Southwest 114 131 1,600  Climbing Indianapolis Center
05:04PM 39.8478 -83.8292 233° Southwest 78 90 1,500  Descending Indianapolis Center
05:04PM 39.8442 -83.8375 241° Southwest 94 108 1,600 60 Climbing Indianapolis Center
05:05PM 39.8342 -83.8519 228° Southwest 79 91 1,600 240 Level Indianapolis Center
05:05PM 39.8281 -83.8572 214° Southwest 78 90 1,900 660 Climbing Indianapolis Center
05:06PM 39.8153 -83.8417 137° Southeast 90 104 2,300 540 Climbing Indianapolis Center
05:07PM 39.8119 -83.8050 97° East 99 114 2,900 480 Climbing Indianapolis Center
05:07PM 39.8100 -83.7897 99° East 110 127 3,000 60 Climbing Indianapolis Center
05:08PM 39.8103 -83.7633 89° East 106 122 3,000 -60 Level Indianapolis Center
05:09PM 39.8192 -83.7122 77° East 118 136 2,900 -60 Descending Indianapolis Center
05:10PM 39.8369 -83.6756 58° Northeast 122 140 2,900  Level Indianapolis Center
05:11PM 39.8603 -83.6456 45° Northeast 119 137 2,900  Level Indianapolis Center
05:12PM 39.8864 -83.6089 47° Northeast 115 132 3,000  Climbing Indianapolis Center
05:13PM 39.9050 -83.5808 49° Northeast 118 136 2,900  Descending Indianapolis Center
05:14PM 39.9261 -83.5469 51° Northeast 118 136 3,000  Climbing Indianapolis Center
05:15PM 39.9508 -83.5694 325° Northwest 114 131 2,900  Descending Indianapolis Center
05:16PM 39.9428 -83.6078 255° West 99 114 3,000  Climbing Indianapolis Center
05:17PM 39.9422 -83.6458 269° West 107 123 2,900 -60 Descending Indianapolis Center
05:18PM 39.9314 -83.6772 246° West 100 115 2,900 -60 Level Indianapolis Center
05:20PM 39.9144 -83.7081 234° Southwest 102 117 2,800 -120 Descending Indianapolis Center